sensor_id;sensor_type;location;lat;lon;timestamp;pressure;altitude;pressure_sealevel;temperature;humidity
54870;BME280;40756;-37.950;145.008;2023-03-04T00:01:57;101001.82;;;24.52;37.65
54870;BME280;40756;-37.950;145.008;2023-03-04T00:04:27;100997.48;;;24.73;37.38
54870;BME280;40756;-37.950;145.008;2023-03-04T00:06:56;100993.16;;;24.43;37.22
54870;BME280;40756;-37.950;145.008;2023-03-04T00:09:26;100999.60;;;24.58;37.21
54870;BME280;40756;-37.950;145.008;2023-03-04T00:11:56;100995.22;;;24.67;37.03
54870;BME280;40756;-37.950;145.008;2023-03-04T00:14:25;100987.99;;;25.36;36.91
54870;BME280;40756;-37.950;145.008;2023-03-04T00:16:55;100984.28;;;25.29;36.74
54870;BME280;40756;-37.950;145.008;2023-03-04T00:19:25;100978.21;;;25.25;36.76
54870;BME280;40756;-37.950;145.008;2023-03-04T00:21:54;100965.35;;;25.36;36.01
54870;BME280;40756;-37.950;145.008;2023-03-04T00:24:23;100953.46;;;25.45;36.02
54870;BME280;40756;-37.950;145.008;2023-03-04T00:26:52;100946.58;;;25.40;36.43
54870;BME280;40756;-37.950;145.008;2023-03-04T00:29:22;100936.57;;;25.57;35.93
54870;BME280;40756;-37.950;145.008;2023-03-04T00:31:51;100935.77;;;25.56;35.61
54870;BME280;40756;-37.950;145.008;2023-03-04T00:34:21;100924.36;;;26.24;36.01
54870;BME280;40756;-37.950;145.008;2023-03-04T00:36:50;100917.31;;;26.24;35.44
54870;BME280;40756;-37.950;145.008;2023-03-04T00:39:20;100908.12;;;26.18;34.77
54870;BME280;40756;-37.950;145.008;2023-03-04T00:41:49;100896.24;;;26.74;34.65
54870;BME280;40756;-37.950;145.008;2023-03-04T00:44:19;100888.45;;;26.47;34.66
54870;BME280;40756;-37.950;145.008;2023-03-04T00:46:48;100877.02;;;26.73;34.73
54870;BME280;40756;-37.950;145.008;2023-03-04T00:49:17;100869.95;;;26.87;34.64
54870;BME280;40756;-37.950;145.008;2023-03-04T00:51:47;100864.55;;;26.87;34.77
54870;BME280;40756;-37.950;145.008;2023-03-04T00:54:16;100855.44;;;27.27;33.92
54870;BME280;40756;-37.950;145.008;2023-03-04T00:56:45;100844.35;;;27.16;33.90
54870;BME280;40756;-37.950;145.008;2023-03-04T00:59:15;100839.48;;;27.48;33.65
54870;BME280;40756;-37.950;145.008;2023-03-04T01:01:44;100831.93;;;27.57;33.95
54870;BME280;40756;-37.950;145.008;2023-03-04T01:04:14;100828.33;;;27.93;33.35
54870;BME280;40756;-37.950;145.008;2023-03-04T01:06:44;100824.09;;;28.35;33.42
54870;BME280;40756;-37.950;145.008;2023-03-04T01:09:14;100821.19;;;27.63;33.15
54870;BME280;40756;-37.950;145.008;2023-03-04T01:11:43;100819.57;;;28.13;32.38
54870;BME280;40756;-37.950;145.008;2023-03-04T01:14:13;100817.50;;;28.09;32.41
54870;BME280;40756;-37.950;145.008;2023-03-04T01:16:42;100818.95;;;28.08;32.69
54870;BME280;40756;-37.950;145.008;2023-03-04T01:19:11;100816.28;;;28.08;33.40
54870;BME280;40756;-37.950;145.008;2023-03-04T01:21:40;100811.58;;;28.14;32.70
54870;BME280;40756;-37.950;145.008;2023-03-04T01:24:10;100810.24;;;28.24;32.24
54870;BME280;40756;-37.950;145.008;2023-03-04T01:26:39;100804.48;;;28.24;32.72
54870;BME280;40756;-37.950;145.008;2023-03-04T01:29:08;100802.53;;;28.35;32.68
54870;BME280;40756;-37.950;145.008;2023-03-04T01:31:38;100798.27;;;28.61;32.67
54870;BME280;40756;-37.950;145.008;2023-03-04T01:34:07;100791.96;;;28.91;31.97
54870;BME280;40756;-37.950;145.008;2023-03-04T01:36:36;100779.23;;;29.02;32.01
54870;BME280;40756;-37.950;145.008;2023-03-04T01:39:06;100779.62;;;28.88;32.38
54870;BME280;40756;-37.950;145.008;2023-03-04T01:41:35;100777.25;;;28.49;32.35
54870;BME280;40756;-37.950;145.008;2023-03-04T01:44:04;100774.30;;;29.13;31.74
54870;BME280;40756;-37.950;145.008;2023-03-04T01:46:34;100766.25;;;28.85;31.61
54870;BME280;40756;-37.950;145.008;2023-03-04T01:49:05;100757.24;;;28.89;31.63
54870;BME280;40756;-37.950;145.008;2023-03-04T01:51:34;100751.03;;;29.10;31.12
54870;BME280;40756;-37.950;145.008;2023-03-04T01:54:03;100748.99;;;29.35;31.74
54870;BME280;40756;-37.950;145.008;2023-03-04T01:56:37;100751.27;;;29.72;30.94
54870;BME280;40756;-37.950;145.008;2023-03-04T01:59:11;100752.63;;;30.05;30.68
54870;BME280;40756;-37.950;145.008;2023-03-04T02:01:42;100744.43;;;29.82;30.61
54870;BME280;40756;-37.950;145.008;2023-03-04T02:04:16;100742.21;;;30.17;31.09
54870;BME280;40756;-37.950;145.008;2023-03-04T02:06:48;100734.52;;;30.09;29.50
54870;BME280;40756;-37.950;145.008;2023-03-04T02:09:20;100733.36;;;30.42;29.14
54870;BME280;40756;-37.950;145.008;2023-03-04T02:11:50;100729.54;;;30.57;29.09
54870;BME280;40756;-37.950;145.008;2023-03-04T02:14:21;100725.36;;;30.16;30.48
54870;BME280;40756;-37.950;145.008;2023-03-04T02:16:51;100719.69;;;30.49;29.28
54870;BME280;40756;-37.950;145.008;2023-03-04T02:19:30;100716.73;;;29.75;29.84
54870;BME280;40756;-37.950;145.008;2023-03-04T02:22:06;100712.72;;;29.16;31.22
54870;BME280;40756;-37.950;145.008;2023-03-04T02:24:40;100708.19;;;29.75;31.52
54870;BME280;40756;-37.950;145.008;2023-03-04T02:27:12;100706.00;;;30.08;30.32
54870;BME280;40756;-37.950;145.008;2023-03-04T02:29:41;100702.74;;;29.64;30.42
54870;BME280;40756;-37.950;145.008;2023-03-04T02:32:12;100701.09;;;30.36;30.08
54870;BME280;40756;-37.950;145.008;2023-03-04T02:34:47;100692.66;;;29.62;30.14
54870;BME280;40756;-37.950;145.008;2023-03-04T02:37:18;100685.02;;;29.10;31.59
54870;BME280;40756;-37.950;145.008;2023-03-04T02:39:49;100685.76;;;30.12;30.94
54870;BME280;40756;-37.950;145.008;2023-03-04T02:42:18;100678.19;;;30.37;29.66
54870;BME280;40756;-37.950;145.008;2023-03-04T02:44:48;100677.53;;;30.93;30.70
54870;BME280;40756;-37.950;145.008;2023-03-04T02:47:18;100676.24;;;30.98;30.23
54870;BME280;40756;-37.950;145.008;2023-03-04T02:49:48;100673.35;;;31.17;28.10
54870;BME280;40756;-37.950;145.008;2023-03-04T02:52:19;100673.55;;;31.55;27.58
54870;BME280;40756;-37.950;145.008;2023-03-04T02:54:49;100672.65;;;31.51;27.09
54870;BME280;40756;-37.950;145.008;2023-03-04T02:57:19;100675.02;;;31.14;26.85
54870;BME280;40756;-37.950;145.008;2023-03-04T02:59:48;100676.16;;;31.26;26.19
54870;BME280;40756;-37.950;145.008;2023-03-04T03:02:17;100672.55;;;31.74;26.87
54870;BME280;40756;-37.950;145.008;2023-03-04T03:04:47;100668.69;;;30.96;27.27
54870;BME280;40756;-37.950;145.008;2023-03-04T03:07:17;100660.91;;;31.62;25.89
54870;BME280;40756;-37.950;145.008;2023-03-04T03:09:47;100658.53;;;31.43;26.76
54870;BME280;40756;-37.950;145.008;2023-03-04T03:12:16;100661.04;;;31.82;27.28
54870;BME280;40756;-37.950;145.008;2023-03-04T03:14:46;100653.49;;;31.82;27.60
54870;BME280;40756;-37.950;145.008;2023-03-04T03:17:15;100646.67;;;32.10;26.80
54870;BME280;40756;-37.950;145.008;2023-03-04T03:19:44;100642.55;;;32.18;26.25
54870;BME280;40756;-37.950;145.008;2023-03-04T03:22:14;100632.90;;;32.38;26.20
54870;BME280;40756;-37.950;145.008;2023-03-04T03:24:43;100628.53;;;32.39;25.96
54870;BME280;40756;-37.950;145.008;2023-03-04T03:27:12;100628.54;;;32.53;25.77
54870;BME280;40756;-37.950;145.008;2023-03-04T03:29:41;100621.49;;;32.26;25.63
54870;BME280;40756;-37.950;145.008;2023-03-04T03:32:11;100621.24;;;32.53;25.74
54870;BME280;40756;-37.950;145.008;2023-03-04T03:34:40;100613.82;;;32.37;26.30
54870;BME280;40756;-37.950;145.008;2023-03-04T03:37:09;100606.11;;;32.28;26.54
54870;BME280;40756;-37.950;145.008;2023-03-04T03:39:38;100606.78;;;31.40;26.47
54870;BME280;40756;-37.950;145.008;2023-03-04T03:42:08;100602.27;;;31.92;26.81
54870;BME280;40756;-37.950;145.008;2023-03-04T03:44:37;100597.77;;;31.62;26.01
54870;BME280;40756;-37.950;145.008;2023-03-04T03:47:07;100594.79;;;31.73;27.12
54870;BME280;40756;-37.950;145.008;2023-03-04T03:49:36;100587.28;;;31.81;26.92
54870;BME280;40756;-37.950;145.008;2023-03-04T03:52:05;100588.97;;;31.79;27.12
54870;BME280;40756;-37.950;145.008;2023-03-04T03:54:35;100582.08;;;31.48;26.49
54870;BME280;40756;-37.950;145.008;2023-03-04T03:57:05;100570.65;;;31.40;26.81
54870;BME280;40756;-37.950;145.008;2023-03-04T03:59:35;100570.86;;;32.03;27.01
54870;BME280;40756;-37.950;145.008;2023-03-04T04:02:05;100570.17;;;32.12;26.37
54870;BME280;40756;-37.950;145.008;2023-03-04T04:04:34;100566.60;;;31.91;27.01
54870;BME280;40756;-37.950;145.008;2023-03-04T04:07:04;100557.78;;;32.10;25.99
54870;BME280;40756;-37.950;145.008;2023-03-04T04:09:34;100551.41;;;31.39;26.99
54870;BME280;40756;-37.950;145.008;2023-03-04T04:12:05;100545.23;;;32.06;25.98
54870;BME280;40756;-37.950;145.008;2023-03-04T04:14:35;100541.46;;;32.09;27.02
54870;BME280;40756;-37.950;145.008;2023-03-04T04:17:04;100532.25;;;31.46;26.32
54870;BME280;40756;-37.950;145.008;2023-03-04T04:19:34;100532.86;;;32.59;25.95
54870;BME280;40756;-37.950;145.008;2023-03-04T04:22:04;100527.77;;;32.87;26.40
54870;BME280;40756;-37.950;145.008;2023-03-04T04:24:34;100520.16;;;32.87;25.79
54870;BME280;40756;-37.950;145.008;2023-03-04T04:27:04;100514.85;;;32.82;25.74
54870;BME280;40756;-37.950;145.008;2023-03-04T04:29:34;100504.63;;;32.95;24.05
54870;BME280;40756;-37.950;145.008;2023-03-04T04:32:03;100499.02;;;32.93;25.27
54870;BME280;40756;-37.950;145.008;2023-03-04T04:34:34;100493.45;;;32.47;24.50
54870;BME280;40756;-37.950;145.008;2023-03-04T04:37:03;100486.07;;;32.59;25.63
54870;BME280;40756;-37.950;145.008;2023-03-04T04:39:32;100485.51;;;32.63;25.48
54870;BME280;40756;-37.950;145.008;2023-03-04T04:42:01;100478.65;;;33.11;25.38
54870;BME280;40756;-37.950;145.008;2023-03-04T04:44:30;100473.31;;;33.06;23.45
54870;BME280;40756;-37.950;145.008;2023-03-04T04:47:00;100468.85;;;32.75;24.49
54870;BME280;40756;-37.950;145.008;2023-03-04T04:49:29;100465.75;;;33.16;24.31
54870;BME280;40756;-37.950;145.008;2023-03-04T04:51:58;100455.54;;;33.00;25.00
54870;BME280;40756;-37.950;145.008;2023-03-04T04:54:28;100454.95;;;32.54;25.25
54870;BME280;40756;-37.950;145.008;2023-03-04T04:56:57;100445.58;;;33.16;24.57
54870;BME280;40756;-37.950;145.008;2023-03-04T04:59:26;100435.71;;;33.30;25.18
54870;BME280;40756;-37.950;145.008;2023-03-04T05:01:55;100433.75;;;32.80;23.57
54870;BME280;40756;-37.950;145.008;2023-03-04T05:04:25;100429.68;;;33.26;23.48
54870;BME280;40756;-37.950;145.008;2023-03-04T05:06:59;100430.13;;;33.57;23.00
54870;BME280;40756;-37.950;145.008;2023-03-04T05:09:28;100433.04;;;33.92;23.12
54870;BME280;40756;-37.950;145.008;2023-03-04T05:11:58;100427.53;;;33.91;21.97
54870;BME280;40756;-37.950;145.008;2023-03-04T05:14:28;100427.67;;;34.10;22.87
54870;BME280;40756;-37.950;145.008;2023-03-04T05:16:57;100423.97;;;34.07;22.34
54870;BME280;40756;-37.950;145.008;2023-03-04T05:19:26;100422.61;;;33.87;21.32
54870;BME280;40756;-37.950;145.008;2023-03-04T05:21:56;100421.98;;;33.31;21.08
54870;BME280;40756;-37.950;145.008;2023-03-04T05:24:25;100420.75;;;33.41;20.76
54870;BME280;40756;-37.950;145.008;2023-03-04T05:26:54;100420.24;;;33.84;21.06
54870;BME280;40756;-37.950;145.008;2023-03-04T05:29:23;100419.39;;;33.29;21.31
54870;BME280;40756;-37.950;145.008;2023-03-04T05:31:53;100420.04;;;32.66;21.09
54870;BME280;40756;-37.950;145.008;2023-03-04T05:34:23;100414.54;;;33.14;20.97
54870;BME280;40756;-37.950;145.008;2023-03-04T05:36:53;100406.99;;;32.97;21.14
54870;BME280;40756;-37.950;145.008;2023-03-04T05:39:22;100401.00;;;33.68;21.00
54870;BME280;40756;-37.950;145.008;2023-03-04T05:41:51;100391.87;;;32.60;20.82
54870;BME280;40756;-37.950;145.008;2023-03-04T05:44:20;100390.10;;;32.99;20.49
54870;BME280;40756;-37.950;145.008;2023-03-04T05:46:49;100386.96;;;33.28;20.48
54870;BME280;40756;-37.950;145.008;2023-03-04T05:49:19;100381.68;;;32.67;20.92
54870;BME280;40756;-37.950;145.008;2023-03-04T05:51:48;100382.73;;;32.22;20.23
54870;BME280;40756;-37.950;145.008;2023-03-04T05:54:17;100380.30;;;32.55;20.87
54870;BME280;40756;-37.950;145.008;2023-03-04T05:56:46;100382.30;;;32.17;20.59
54870;BME280;40756;-37.950;145.008;2023-03-04T05:59:16;100379.96;;;32.52;21.07
54870;BME280;40756;-37.950;145.008;2023-03-04T06:01:45;100374.96;;;32.10;21.50
54870;BME280;40756;-37.950;145.008;2023-03-04T06:04:16;100370.25;;;32.37;21.85
54870;BME280;40756;-37.950;145.008;2023-03-04T06:06:45;100374.50;;;32.53;21.31
54870;BME280;40756;-37.950;145.008;2023-03-04T06:09:15;100374.44;;;32.87;20.92
54870;BME280;40756;-37.950;145.008;2023-03-04T06:11:44;100373.00;;;32.33;21.41
54870;BME280;40756;-37.950;145.008;2023-03-04T06:14:15;100371.82;;;32.57;21.57
54870;BME280;40756;-37.950;145.008;2023-03-04T06:16:44;100369.93;;;32.01;21.63
54870;BME280;40756;-37.950;145.008;2023-03-04T06:19:13;100366.94;;;32.00;21.77
54870;BME280;40756;-37.950;145.008;2023-03-04T06:21:43;100367.13;;;31.92;21.25
54870;BME280;40756;-37.950;145.008;2023-03-04T06:24:12;100368.17;;;32.74;22.08
54870;BME280;40756;-37.950;145.008;2023-03-04T06:26:41;100359.28;;;32.15;22.75
54870;BME280;40756;-37.950;145.008;2023-03-04T06:29:10;100356.86;;;32.63;21.06
54870;BME280;40756;-37.950;145.008;2023-03-04T06:31:40;100352.49;;;32.01;22.11
54870;BME280;40756;-37.950;145.008;2023-03-04T06:34:09;100352.55;;;32.62;22.38
54870;BME280;40756;-37.950;145.008;2023-03-04T06:36:39;100355.24;;;32.25;21.57
54870;BME280;40756;-37.950;145.008;2023-03-04T06:39:09;100357.22;;;32.47;21.20
54870;BME280;40756;-37.950;145.008;2023-03-04T06:41:40;100355.99;;;32.60;21.56
54870;BME280;40756;-37.950;145.008;2023-03-04T06:44:10;100354.77;;;32.57;21.22
54870;BME280;40756;-37.950;145.008;2023-03-04T06:46:39;100352.84;;;32.40;21.77
54870;BME280;40756;-37.950;145.008;2023-03-04T06:49:09;100354.46;;;32.69;21.38
54870;BME280;40756;-37.950;145.008;2023-03-04T06:51:39;100358.87;;;32.68;21.76
54870;BME280;40756;-37.950;145.008;2023-03-04T06:54:08;100350.65;;;32.46;21.82
54870;BME280;40756;-37.950;145.008;2023-03-04T06:56:38;100346.60;;;32.50;21.91
54870;BME280;40756;-37.950;145.008;2023-03-04T06:59:08;100342.82;;;32.05;22.80
54870;BME280;40756;-37.950;145.008;2023-03-04T07:01:37;100338.47;;;32.14;23.14
54870;BME280;40756;-37.950;145.008;2023-03-04T07:04:06;100329.37;;;31.80;23.37
54870;BME280;40756;-37.950;145.008;2023-03-04T07:06:36;100336.18;;;32.01;22.66
54870;BME280;40756;-37.950;145.008;2023-03-04T07:09:06;100335.24;;;32.05;22.77
54870;BME280;40756;-37.950;145.008;2023-03-04T07:11:35;100330.86;;;31.75;23.66
54870;BME280;40756;-37.950;145.008;2023-03-04T07:14:05;100325.25;;;31.72;24.24
54870;BME280;40756;-37.950;145.008;2023-03-04T07:16:36;100322.88;;;31.99;23.58
54870;BME280;40756;-37.950;145.008;2023-03-04T07:19:05;100326.46;;;31.93;23.88
54870;BME280;40756;-37.950;145.008;2023-03-04T07:21:35;100329.46;;;31.30;24.34
54870;BME280;40756;-37.950;145.008;2023-03-04T07:24:05;100328.29;;;31.34;23.85
54870;BME280;40756;-37.950;145.008;2023-03-04T07:26:35;100321.03;;;31.54;23.46
54870;BME280;40756;-37.950;145.008;2023-03-04T07:29:04;100322.98;;;31.88;24.06
54870;BME280;40756;-37.950;145.008;2023-03-04T07:31:34;100321.10;;;31.72;23.93
54870;BME280;40756;-37.950;145.008;2023-03-04T07:34:06;100323.65;;;31.39;23.39
54870;BME280;40756;-37.950;145.008;2023-03-04T07:36:37;100318.07;;;31.61;23.74
54870;BME280;40756;-37.950;145.008;2023-03-04T07:39:07;100317.49;;;32.25;23.80
54870;BME280;40756;-37.950;145.008;2023-03-04T07:41:37;100319.14;;;31.95;22.71
54870;BME280;40756;-37.950;145.008;2023-03-04T07:44:08;100319.71;;;31.80;24.27
54870;BME280;40756;-37.950;145.008;2023-03-04T07:46:39;100322.48;;;32.14;23.75
54870;BME280;40756;-37.950;145.008;2023-03-04T07:49:10;100326.20;;;32.06;22.60
54870;BME280;40756;-37.950;145.008;2023-03-04T07:51:40;100325.73;;;32.16;23.31
54870;BME280;40756;-37.950;145.008;2023-03-04T07:54:10;100322.72;;;32.32;23.60
54870;BME280;40756;-37.950;145.008;2023-03-04T07:56:40;100320.91;;;31.98;23.71
54870;BME280;40756;-37.950;145.008;2023-03-04T07:59:09;100319.48;;;32.38;23.67
54870;BME280;40756;-37.950;145.008;2023-03-04T08:01:39;100327.33;;;32.09;22.99
54870;BME280;40756;-37.950;145.008;2023-03-04T08:04:08;100336.19;;;30.63;26.11
54870;BME280;40756;-37.950;145.008;2023-03-04T08:06:39;100335.91;;;30.25;27.51
54870;BME280;40756;-37.950;145.008;2023-03-04T08:09:10;100331.87;;;30.16;28.04
54870;BME280;40756;-37.950;145.008;2023-03-04T08:11:40;100332.68;;;29.51;29.64
54870;BME280;40756;-37.950;145.008;2023-03-04T08:14:11;100339.78;;;29.54;29.84
54870;BME280;40756;-37.950;145.008;2023-03-04T08:16:42;100336.66;;;29.30;30.07
54870;BME280;40756;-37.950;145.008;2023-03-04T08:19:12;100329.29;;;30.26;29.02
54870;BME280;40756;-37.950;145.008;2023-03-04T08:21:41;100329.44;;;30.13;29.23
54870;BME280;40756;-37.950;145.008;2023-03-04T08:24:11;100334.21;;;29.99;30.17
54870;BME280;40756;-37.950;145.008;2023-03-04T08:26:43;100332.62;;;29.92;30.30
54870;BME280;40756;-37.950;145.008;2023-03-04T08:29:15;100326.09;;;30.25;29.50
54870;BME280;40756;-37.950;145.008;2023-03-04T08:31:44;100330.65;;;30.02;30.39
54870;BME280;40756;-37.950;145.008;2023-03-04T08:34:15;100330.56;;;30.20;30.04
54870;BME280;40756;-37.950;145.008;2023-03-04T08:36:44;100335.71;;;29.24;31.09
54870;BME280;40756;-37.950;145.008;2023-03-04T08:39:15;100335.83;;;29.39;30.92
54870;BME280;40756;-37.950;145.008;2023-03-04T08:41:45;100336.37;;;29.48;30.88
54870;BME280;40756;-37.950;145.008;2023-03-04T08:44:16;100339.06;;;29.37;31.16
54870;BME280;40756;-37.950;145.008;2023-03-04T08:46:45;100340.96;;;29.59;31.27
54870;BME280;40756;-37.950;145.008;2023-03-04T08:49:14;100344.54;;;29.18;31.57
54870;BME280;40756;-37.950;145.008;2023-03-04T08:51:44;100345.98;;;29.25;32.11
54870;BME280;40756;-37.950;145.008;2023-03-04T08:54:13;100344.81;;;29.16;31.92
54870;BME280;40756;-37.950;145.008;2023-03-04T08:56:42;100345.02;;;29.17;31.68
54870;BME280;40756;-37.950;145.008;2023-03-04T08:59:12;100344.10;;;28.95;31.09
54870;BME280;40756;-37.950;145.008;2023-03-04T09:01:41;100343.51;;;28.85;31.23
54870;BME280;40756;-37.950;145.008;2023-03-04T09:04:11;100345.89;;;28.76;31.02
54870;BME280;40756;-37.950;145.008;2023-03-04T09:06:41;100348.03;;;28.49;31.34
54870;BME280;40756;-37.950;145.008;2023-03-04T09:09:10;100349.35;;;28.50;30.83
54870;BME280;40756;-37.950;145.008;2023-03-04T09:11:39;100348.73;;;28.44;30.75
54870;BME280;40756;-37.950;145.008;2023-03-04T09:14:09;100352.37;;;28.80;31.18
54870;BME280;40756;-37.950;145.008;2023-03-04T09:16:39;100350.33;;;28.51;30.63
54870;BME280;40756;-37.950;145.008;2023-03-04T09:19:09;100345.81;;;28.60;30.74
54870;BME280;40756;-37.950;145.008;2023-03-04T09:21:38;100346.60;;;28.39;31.20
54870;BME280;40756;-37.950;145.008;2023-03-04T09:24:08;100342.23;;;28.35;31.64
54870;BME280;40756;-37.950;145.008;2023-03-04T09:26:37;100343.10;;;28.21;31.64
54870;BME280;40756;-37.950;145.008;2023-03-04T09:29:07;100348.76;;;27.96;32.27
54870;BME280;40756;-37.950;145.008;2023-03-04T09:31:36;100350.47;;;27.97;31.81
54870;BME280;40756;-37.950;145.008;2023-03-04T09:34:06;100351.86;;;28.05;31.73
54870;BME280;40756;-37.950;145.008;2023-03-04T09:36:36;100352.15;;;27.73;32.26
54870;BME280;40756;-37.950;145.008;2023-03-04T09:39:06;100353.79;;;27.69;32.36
54870;BME280;40756;-37.950;145.008;2023-03-04T09:41:41;100353.95;;;27.44;32.86
54870;BME280;40756;-37.950;145.008;2023-03-04T09:44:20;100351.86;;;27.54;33.26
54870;BME280;40756;-37.950;145.008;2023-03-04T09:46:53;100356.44;;;27.32;33.21
54870;BME280;40756;-37.950;145.008;2023-03-04T09:49:24;100356.99;;;27.50;33.51
54870;BME280;40756;-37.950;145.008;2023-03-04T09:51:59;100362.36;;;27.19;33.70
54870;BME280;40756;-37.950;145.008;2023-03-04T09:54:49;100368.05;;;27.30;33.96
54870;BME280;40756;-37.950;145.008;2023-03-04T09:57:28;100368.94;;;26.92;34.13
54870;BME280;40756;-37.950;145.008;2023-03-04T10:00:08;100367.24;;;27.12;34.14
54870;BME280;40756;-37.950;145.008;2023-03-04T10:02:57;100367.59;;;26.76;34.29
54870;BME280;40756;-37.950;145.008;2023-03-04T10:05:33;100369.08;;;26.63;34.17
54870;BME280;40756;-37.950;145.008;2023-03-04T10:08:18;100368.89;;;26.76;34.22
54870;BME280;40756;-37.950;145.008;2023-03-04T10:10:55;100362.97;;;26.80;34.15
54870;BME280;40756;-37.950;145.008;2023-03-04T10:13:32;100364.15;;;26.65;34.12
54870;BME280;40756;-37.950;145.008;2023-03-04T10:16:07;100367.94;;;26.84;34.09
54870;BME280;40756;-37.950;145.008;2023-03-04T10:18:43;100369.67;;;26.85;34.24
54870;BME280;40756;-37.950;145.008;2023-03-04T10:21:21;100372.00;;;26.53;34.49
54870;BME280;40756;-37.950;145.008;2023-03-04T10:23:51;100374.41;;;26.70;34.59
54870;BME280;40756;-37.950;145.008;2023-03-04T10:26:21;100369.57;;;26.78;34.74
54870;BME280;40756;-37.950;145.008;2023-03-04T10:28:51;100365.95;;;26.62;34.96
54870;BME280;40756;-37.950;145.008;2023-03-04T10:31:30;100367.70;;;26.61;35.08
54870;BME280;40756;-37.950;145.008;2023-03-04T10:34:00;100367.47;;;26.53;35.14
54870;BME280;40756;-37.950;145.008;2023-03-04T10:36:40;100363.55;;;26.42;35.15
54870;BME280;40756;-37.950;145.008;2023-03-04T10:39:17;100364.55;;;26.40;35.35
54870;BME280;40756;-37.950;145.008;2023-03-04T10:41:56;100365.25;;;26.39;35.33
54870;BME280;40756;-37.950;145.008;2023-03-04T10:44:26;100365.01;;;26.22;35.68
54870;BME280;40756;-37.950;145.008;2023-03-04T10:46:57;100366.31;;;26.24;35.73
54870;BME280;40756;-37.950;145.008;2023-03-04T10:49:28;100366.31;;;26.10;35.79
54870;BME280;40756;-37.950;145.008;2023-03-04T10:52:11;100365.08;;;25.91;36.05
54870;BME280;40756;-37.950;145.008;2023-03-04T10:54:48;100359.44;;;25.80;36.33
54870;BME280;40756;-37.950;145.008;2023-03-04T10:57:25;100367.28;;;25.90;36.54
54870;BME280;40756;-37.950;145.008;2023-03-04T10:59:58;100368.76;;;25.68;36.36
54870;BME280;40756;-37.950;145.008;2023-03-04T11:02:30;100402.16;;;25.20;37.17
54870;BME280;40756;-37.950;145.008;2023-03-04T11:05:15;100405.38;;;24.88;39.43
54870;BME280;40756;-37.950;145.008;2023-03-04T11:07:47;100408.25;;;24.87;41.62
54870;BME280;40756;-37.950;145.008;2023-03-04T11:10:20;100404.09;;;24.26;44.65
54870;BME280;40756;-37.950;145.008;2023-03-04T11:12:51;100412.29;;;23.01;49.93
54870;BME280;40756;-37.950;145.008;2023-03-04T11:15:27;100421.20;;;23.02;50.27
54870;BME280;40756;-37.950;145.008;2023-03-04T11:18:01;100440.72;;;21.52;55.68
54870;BME280;40756;-37.950;145.008;2023-03-04T11:20:35;100437.34;;;22.30;56.10
54870;BME280;40756;-37.950;145.008;2023-03-04T11:23:10;100450.22;;;20.81;60.18
54870;BME280;40756;-37.950;145.008;2023-03-04T11:25:43;100445.89;;;21.04;59.52
54870;BME280;40756;-37.950;145.008;2023-03-04T11:28:19;100447.56;;;22.08;58.63
54870;BME280;40756;-37.950;145.008;2023-03-04T11:30:53;100445.57;;;21.30;59.89
54870;BME280;40756;-37.950;145.008;2023-03-04T11:33:31;100452.50;;;21.49;59.52
54870;BME280;40756;-37.950;145.008;2023-03-04T11:36:15;100457.60;;;20.20;62.91
54870;BME280;40756;-37.950;145.008;2023-03-04T11:38:48;100465.49;;;20.14;62.74
54870;BME280;40756;-37.950;145.008;2023-03-04T11:41:22;100461.76;;;20.20;63.51
54870;BME280;40756;-37.950;145.008;2023-03-04T11:43:53;100461.82;;;19.84;65.00
54870;BME280;40756;-37.950;145.008;2023-03-04T11:48:43;100456.93;;;20.27;64.19
54870;BME280;40756;-37.950;145.008;2023-03-04T11:51:21;100455.39;;;20.15;63.59
54870;BME280;40756;-37.950;145.008;2023-03-04T11:54:07;100457.12;;;20.03;65.74
54870;BME280;40756;-37.950;145.008;2023-03-04T11:56:44;100460.11;;;20.12;64.94
54870;BME280;40756;-37.950;145.008;2023-03-04T11:59:29;100461.22;;;20.29;64.85
54870;BME280;40756;-37.950;145.008;2023-03-04T12:02:14;100468.42;;;20.37;63.78
54870;BME280;40756;-37.950;145.008;2023-03-04T12:05:16;100468.87;;;19.91;65.29
54870;BME280;40756;-37.950;145.008;2023-03-04T12:08:39;100468.33;;;19.89;64.50
54870;BME280;40756;-37.950;145.008;2023-03-04T12:11:16;100465.97;;;19.67;65.73
54870;BME280;40756;-37.950;145.008;2023-03-04T12:14:07;100457.75;;;19.48;65.38
54870;BME280;40756;-37.950;145.008;2023-03-04T12:16:57;100452.99;;;19.36;65.75
54870;BME280;40756;-37.950;145.008;2023-03-04T12:19:40;100452.76;;;19.41;66.62
54870;BME280;40756;-37.950;145.008;2023-03-04T12:22:30;100456.50;;;19.96;64.78
54870;BME280;40756;-37.950;145.008;2023-03-04T12:25:34;100457.16;;;19.79;65.56
54870;BME280;40756;-37.950;145.008;2023-03-04T12:28:19;100458.53;;;20.43;63.93
54870;BME280;40756;-37.950;145.008;2023-03-04T12:31:06;100454.60;;;19.68;65.35
54870;BME280;40756;-37.950;145.008;2023-03-04T12:33:48;100443.99;;;20.18;64.33
54870;BME280;40756;-37.950;145.008;2023-03-04T12:36:28;100449.70;;;19.31;66.58
54870;BME280;40756;-37.950;145.008;2023-03-04T12:39:17;100446.11;;;19.81;65.59
54870;BME280;40756;-37.950;145.008;2023-03-04T12:41:59;100443.21;;;19.85;64.97
54870;BME280;40756;-37.950;145.008;2023-03-04T12:44:44;100442.42;;;19.83;65.13
54870;BME280;40756;-37.950;145.008;2023-03-04T12:47:26;100443.36;;;19.72;64.88